sensor_id;sensor_type;location;lat;lon;timestamp;pressure;altitude;pressure_sealevel;temperature;humidity
78459;BME280;67753;42.684;23.330;2023-05-18T00:00:18;94394.88;;;13.51;100.00
78459;BME280;67753;42.684;23.330;2023-05-18T00:02:20;94388.72;;;13.25;100.00
78459;BME280;67753;42.684;23.330;2023-05-18T00:04:25;94381.78;;;13.35;100.00
78459;BME280;67753;42.684;23.330;2023-05-18T00:06:28;94374.88;;;13.13;100.00
78459;BME280;67753;42.684;23.330;2023-05-18T00:08:32;94357.97;;;13.16;100.00
78459;BME280;67753;42.684;23.330;2023-05-18T00:10:34;94348.00;;;13.23;100.00
78459;BME280;67753;42.684;23.330;2023-05-18T00:12:36;94347.97;;;13.05;100.00
78459;BME280;67753;42.684;23.330;2023-05-18T00:14:38;94352.19;;;13.17;100.00
78459;BME280;67753;42.684;23.330;2023-05-18T00:16:39;94357.97;;;13.37;100.00
78459;BME280;67753;42.684;23.330;2023-05-18T00:18:42;94357.22;;;13.22;100.00
78459;BME280;67753;42.684;23.330;2023-05-18T00:20:47;94364.13;;;13.41;100.00
78459;BME280;67753;42.684;23.330;2023-05-18T00:22:49;94388.75;;;13.36;100.00
78459;BME280;67753;42.684;23.330;2023-05-18T00:24:52;94394.09;;;13.47;100.00
78459;BME280;67753;42.684;23.330;2023-05-18T00:26:54;94403.31;;;13.39;100.00
78459;BME280;67753;42.684;23.330;2023-05-18T00:28:55;94408.69;;;13.60;100.00
78459;BME280;67753;42.684;23.330;2023-05-18T00:30:57;94423.69;;;13.43;100.00
78459;BME280;67753;42.684;23.330;2023-05-18T00:32:59;94427.16;;;13.19;100.00
78459;BME280;67753;42.684;23.330;2023-05-18T00:35:01;94431.75;;;13.58;100.00
78459;BME280;67753;42.684;23.330;2023-05-18T00:37:05;94435.63;;;13.42;100.00
78459;BME280;67753;42.684;23.330;2023-05-18T00:39:07;94437.94;;;13.47;100.00
78459;BME280;67753;42.684;23.330;2023-05-18T00:41:10;94445.59;;;13.70;100.00
78459;BME280;67753;42.684;23.330;2023-05-18T00:43:12;94442.91;;;13.74;100.00
78459;BME280;67753;42.684;23.330;2023-05-18T00:45:14;94437.16;;;13.65;100.00
78459;BME280;67753;42.684;23.330;2023-05-18T00:47:16;94439.34;;;14.05;100.00
78459;BME280;67753;42.684;23.330;2023-05-18T00:49:22;94441.72;;;13.89;100.00
78459;BME280;67753;42.684;23.330;2023-05-18T00:51:23;94443.25;;;13.97;100.00
78459;BME280;67753;42.684;23.330;2023-05-18T00:53:28;94450.84;;;14.27;100.00
78459;BME280;67753;42.684;23.330;2023-05-18T00:55:30;94436.63;;;14.16;100.00
78459;BME280;67753;42.684;23.330;2023-05-18T00:57:31;94440.41;;;14.29;100.00
78459;BME280;67753;42.684;23.330;2023-05-18T00:59:36;94436.22;;;14.21;100.00
78459;BME280;67753;42.684;23.330;2023-05-18T01:01:37;94423.25;;;13.84;100.00
78459;BME280;67753;42.684;23.330;2023-05-18T01:03:43;94418.66;;;13.74;100.00
78459;BME280;67753;42.684;23.330;2023-05-18T01:05:45;94418.66;;;13.74;100.00
78459;BME280;67753;42.684;23.330;2023-05-18T01:07:49;94420.63;;;13.52;100.00
78459;BME280;67753;42.684;23.330;2023-05-18T01:09:53;94411.75;;;13.66;100.00
78459;BME280;67753;42.684;23.330;2023-05-18T01:11:59;94413.69;;;13.62;100.00
78459;BME280;67753;42.684;23.330;2023-05-18T01:14:10;94418.28;;;13.68;100.00
78459;BME280;67753;42.684;23.330;2023-05-18T01:16:19;94401.38;;;13.61;100.00
78459;BME280;67753;42.684;23.330;2023-05-18T01:18:30;94413.69;;;13.65;100.00
78459;BME280;67753;42.684;23.330;2023-05-18T01:20:37;94410.22;;;13.65;100.00
78459;BME280;67753;42.684;23.330;2023-05-18T01:22:55;94427.47;;;13.85;100.00
78459;BME280;67753;42.684;23.330;2023-05-18T01:25:09;94424.88;;;13.42;100.00
78459;BME280;67753;42.684;23.330;2023-05-18T01:27:16;94414.84;;;13.11;100.00
78459;BME280;67753;42.684;23.330;2023-05-18T01:29:19;94421.78;;;13.26;100.00
78459;BME280;67753;42.684;23.330;2023-05-18T01:31:21;94413.31;;;13.31;100.00
78459;BME280;67753;42.684;23.330;2023-05-18T01:33:24;94418.69;;;13.52;100.00
78459;BME280;67753;42.684;23.330;2023-05-18T01:35:26;94419.47;;;13.53;100.00
78459;BME280;67753;42.684;23.330;2023-05-18T01:37:28;94424.06;;;13.67;100.00
78459;BME280;67753;42.684;23.330;2023-05-18T01:39:30;94430.16;;;13.89;100.00
78459;BME280;67753;42.684;23.330;2023-05-18T01:41:36;94434.75;;;14.02;100.00
78459;BME280;67753;42.684;23.330;2023-05-18T01:43:46;94434.75;;;13.99;100.00
78459;BME280;67753;42.684;23.330;2023-05-18T01:45:53;94423.16;;;14.13;100.00
78459;BME280;67753;42.684;23.330;2023-05-18T01:47:58;94419.31;;;14.06;100.00
78459;BME280;67753;42.684;23.330;2023-05-18T01:50:05;94415.59;;;13.72;100.00
78459;BME280;67753;42.684;23.330;2023-05-18T01:52:10;94421.63;;;14.12;100.00
78459;BME280;67753;42.684;23.330;2023-05-18T01:54:16;94429.38;;;13.95;100.00
78459;BME280;67753;42.684;23.330;2023-05-18T01:56:20;94427.03;;;14.04;100.00
78459;BME280;67753;42.684;23.330;2023-05-18T01:58:23;94433.94;;;14.13;100.00
78459;BME280;67753;42.684;23.330;2023-05-18T02:00:27;94439.38;;;13.98;100.00
78459;BME280;67753;42.684;23.330;2023-05-18T02:02:29;94437.81;;;14.08;100.00
78459;BME280;67753;42.684;23.330;2023-05-18T02:04:32;94428.28;;;13.78;100.00
78459;BME280;67753;42.684;23.330;2023-05-18T02:06:34;94435.13;;;14.12;100.00
78459;BME280;67753;42.684;23.330;2023-05-18T02:08:37;94433.97;;;14.02;100.00
78459;BME280;67753;42.684;23.330;2023-05-18T02:10:39;94427.84;;;13.87;100.00
78459;BME280;67753;42.684;23.330;2023-05-18T02:12:41;94438.59;;;14.01;100.00
78459;BME280;67753;42.684;23.330;2023-05-18T02:14:43;94437.00;;;14.18;100.00
78459;BME280;67753;42.684;23.330;2023-05-18T02:16:46;94447.78;;;14.22;100.00
78459;BME280;67753;42.684;23.330;2023-05-18T02:18:52;94434.00;;;13.95;100.00
78459;BME280;67753;42.684;23.330;2023-05-18T02:20:57;94445.53;;;13.95;100.00
78459;BME280;67753;42.684;23.330;2023-05-18T02:22:59;94439.38;;;13.91;100.00
78459;BME280;67753;42.684;23.330;2023-05-18T02:25:01;94436.28;;;13.96;100.00
78459;BME280;67753;42.684;23.330;2023-05-18T02:27:04;94443.28;;;13.76;100.00
78459;BME280;67753;42.684;23.330;2023-05-18T02:29:06;94442.81;;;14.10;100.00
78459;BME280;67753;42.684;23.330;2023-05-18T02:31:11;94437.81;;;14.04;100.00
78459;BME280;67753;42.684;23.330;2023-05-18T02:33:14;94440.88;;;14.14;100.00
78459;BME280;67753;42.684;23.330;2023-05-18T02:35:17;94438.63;;;13.87;100.00
78459;BME280;67753;42.684;23.330;2023-05-18T02:37:19;94436.25;;;14.11;100.00
78459;BME280;67753;42.684;23.330;2023-05-18T02:39:22;94443.16;;;14.26;100.00
78459;BME280;67753;42.684;23.330;2023-05-18T02:41:24;94440.53;;;13.94;100.00
78459;BME280;67753;42.684;23.330;2023-05-18T02:43:26;94443.97;;;14.05;100.00
78459;BME280;67753;42.684;23.330;2023-05-18T02:45:28;94449.34;;;14.01;100.00
78459;BME280;67753;42.684;23.330;2023-05-18T02:47:29;94455.91;;;14.07;100.00
78459;BME280;67753;42.684;23.330;2023-05-18T02:49:33;94454.81;;;13.84;100.00
78459;BME280;67753;42.684;23.330;2023-05-18T02:51:34;94455.22;;;13.78;100.00
78459;BME280;67753;42.684;23.330;2023-05-18T02:53:36;94453.25;;;13.93;100.00
78459;BME280;67753;42.684;23.330;2023-05-18T02:55:38;94454.03;;;13.69;100.00
78459;BME280;67753;42.684;23.330;2023-05-18T02:57:42;94456.34;;;13.81;100.00
78459;BME280;67753;42.684;23.330;2023-05-18T02:59:46;94458.63;;;13.93;100.00
78459;BME280;67753;42.684;23.330;2023-05-18T03:01:48;94467.13;;;13.81;100.00
78459;BME280;67753;42.684;23.330;2023-05-18T03:03:50;94476.31;;;13.94;100.00
78459;BME280;67753;42.684;23.330;2023-05-18T03:05:54;94477.53;;;13.79;100.00
78459;BME280;67753;42.684;23.330;2023-05-18T03:07:57;94484.00;;;13.99;100.00
78459;BME280;67753;42.684;23.330;2023-05-18T03:10:02;94490.59;;;13.70;100.00
78459;BME280;67753;42.684;23.330;2023-05-18T03:12:04;94484.81;;;13.75;100.00
78459;BME280;67753;42.684;23.330;2023-05-18T03:14:06;94490.19;;;13.89;100.00
78459;BME280;67753;42.684;23.330;2023-05-18T03:16:08;94487.09;;;13.94;100.00
78459;BME280;67753;42.684;23.330;2023-05-18T03:18:11;94501.28;;;14.23;100.00
78459;BME280;67753;42.684;23.330;2023-05-18T03:20:13;94500.19;;;13.78;100.00
78459;BME280;67753;42.684;23.330;2023-05-18T03:22:17;94505.94;;;14.01;100.00
78459;BME280;67753;42.684;23.330;2023-05-18T03:24:19;94494.03;;;13.88;100.00
78459;BME280;67753;42.684;23.330;2023-05-18T03:26:21;94508.66;;;13.80;100.00
78459;BME280;67753;42.684;23.330;2023-05-18T03:28:25;94501.72;;;14.00;100.00
78459;BME280;67753;42.684;23.330;2023-05-18T03:30:27;94512.47;;;14.15;100.00
78459;BME280;67753;42.684;23.330;2023-05-18T03:32:29;94514.00;;;14.09;100.00
78459;BME280;67753;42.684;23.330;2023-05-18T03:34:31;94516.28;;;14.28;100.00
78459;BME280;67753;42.684;23.330;2023-05-18T03:36:32;94521.69;;;14.10;100.00
78459;BME280;67753;42.684;23.330;2023-05-18T03:38:36;94519.34;;;14.30;100.00
78459;BME280;67753;42.684;23.330;2023-05-18T03:40:38;94519.38;;;14.19;100.00
78459;BME280;67753;42.684;23.330;2023-05-18T03:42:41;94510.19;;;13.99;100.00
78459;BME280;67753;42.684;23.330;2023-05-18T03:44:44;94510.88;;;14.21;100.00
78459;BME280;67753;42.684;23.330;2023-05-18T03:46:46;94518.63;;;14.12;100.00
78459;BME280;67753;42.684;23.330;2023-05-18T03:48:48;94514.00;;;14.12;100.00
78459;BME280;67753;42.684;23.330;2023-05-18T03:50:50;94507.91;;;13.40;100.00
78459;BME280;67753;42.684;23.330;2023-05-18T03:52:53;94510.94;;;13.99;100.00
78459;BME280;67753;42.684;23.330;2023-05-18T03:54:56;94530.91;;;14.20;100.00
78459;BME280;67753;42.684;23.330;2023-05-18T03:56:58;94529.34;;;14.33;100.00
78459;BME280;67753;42.684;23.330;2023-05-18T03:59:00;94543.19;;;14.42;100.00
78459;BME280;67753;42.684;23.330;2023-05-18T04:01:03;94527.91;;;13.82;100.00
78459;BME280;67753;42.684;23.330;2023-05-18T04:03:05;94534.81;;;14.01;100.00
78459;BME280;67753;42.684;23.330;2023-05-18T04:05:07;94531.75;;;13.88;100.00
78459;BME280;67753;42.684;23.330;2023-05-18T04:07:10;94542.13;;;13.86;100.00
78459;BME280;67753;42.684;23.330;2023-05-18T04:09:16;94541.72;;;14.09;100.00
78459;BME280;67753;42.684;23.330;2023-05-18T04:11:20;94546.31;;;14.16;100.00
78459;BME280;67753;42.684;23.330;2023-05-18T04:13:22;94546.34;;;14.05;100.00
78459;BME280;67753;42.684;23.330;2023-05-18T04:15:24;94550.19;;;14.00;100.00
78459;BME280;67753;42.684;23.330;2023-05-18T04:17:26;94547.13;;;14.05;100.00
78459;BME280;67753;42.684;23.330;2023-05-18T04:19:28;94555.53;;;14.36;100.00
78459;BME280;67753;42.684;23.330;2023-05-18T04:21:32;94557.06;;;14.41;100.00
78459;BME280;67753;42.684;23.330;2023-05-18T04:23:35;94559.41;;;14.49;100.00
78459;BME280;67753;42.684;23.330;2023-05-18T04:25:38;94553.59;;;14.54;100.00
78459;BME280;67753;42.684;23.330;2023-05-18T04:27:43;94544.38;;;14.20;100.00
78459;BME280;67753;42.684;23.330;2023-05-18T04:29:45;94544.75;;;14.50;100.00
78459;BME280;67753;42.684;23.330;2023-05-18T04:31:48;94554.72;;;14.64;100.00
78459;BME280;67753;42.684;23.330;2023-05-18T04:33:50;94549.38;;;14.36;100.00
78459;BME280;67753;42.684;23.330;2023-05-18T04:35:52;94553.25;;;14.31;100.00
78459;BME280;67753;42.684;23.330;2023-05-18T04:37:55;94558.53;;;14.70;100.00
78459;BME280;67753;42.684;23.330;2023-05-18T04:39:57;94567.06;;;14.54;100.00
78459;BME280;67753;42.684;23.330;2023-05-18T04:42:01;94571.50;;;15.00;100.00
78459;BME280;67753;42.684;23.330;2023-05-18T04:44:05;94566.88;;;15.04;100.00
78459;BME280;67753;42.684;23.330;2023-05-18T04:46:08;94568.16;;;14.68;100.00
78459;BME280;67753;42.684;23.330;2023-05-18T04:48:10;94573.75;;;15.20;100.00
78459;BME280;67753;42.684;23.330;2023-05-18T04:50:15;94576.13;;;15.03;100.00
78459;BME280;67753;42.684;23.330;2023-05-18T04:52:17;94583.94;;;14.87;100.00
78459;BME280;67753;42.684;23.330;2023-05-18T04:54:20;94574.72;;;14.74;100.00
78459;BME280;67753;42.684;23.330;2023-05-18T04:56:24;94583.09;;;14.97;100.00
78459;BME280;67753;42.684;23.330;2023-05-18T04:58:26;94597.78;;;14.89;100.00
78459;BME280;67753;42.684;23.330;2023-05-18T05:00:31;94585.50;;;14.70;100.00
78459;BME280;67753;42.684;23.330;2023-05-18T05:02:35;94589.69;;;14.89;100.00
78459;BME280;67753;42.684;23.330;2023-05-18T05:04:37;94605.56;;;14.73;100.00
78459;BME280;67753;42.684;23.330;2023-05-18T05:06:39;94603.19;;;14.86;100.00
78459;BME280;67753;42.684;23.330;2023-05-18T05:08:41;94607.00;;;14.95;100.00
78459;BME280;67753;42.684;23.330;2023-05-18T05:10:43;94605.50;;;14.87;100.00
78459;BME280;67753;42.684;23.330;2023-05-18T05:12:45;94600.97;;;14.34;100.00
78459;BME280;67753;42.684;23.330;2023-05-18T05:14:47;94602.53;;;14.28;100.00
78459;BME280;67753;42.684;23.330;2023-05-18T05:16:50;94609.38;;;14.79;100.00
78459;BME280;67753;42.684;23.330;2023-05-18T05:18:52;94613.63;;;14.76;100.00
78459;BME280;67753;42.684;23.330;2023-05-18T05:20:54;94615.50;;;14.97;100.00
78459;BME280;67753;42.684;23.330;2023-05-18T05:22:56;94621.69;;;14.83;100.00
78459;BME280;67753;42.684;23.330;2023-05-18T05:24:58;94617.03;;;14.91;100.00
78459;BME280;67753;42.684;23.330;2023-05-18T05:27:00;94615.59;;;14.69;100.00
78459;BME280;67753;42.684;23.330;2023-05-18T05:29:02;94609.44;;;14.57;100.00
78459;BME280;67753;42.684;23.330;2023-05-18T05:31:04;94623.25;;;14.81;100.00
78459;BME280;67753;42.684;23.330;2023-05-18T05:33:08;94617.09;;;14.73;100.00
78459;BME280;67753;42.684;23.330;2023-05-18T05:35:10;94620.16;;;14.82;100.00
78459;BME280;67753;42.684;23.330;2023-05-18T05:37:12;94629.28;;;15.14;100.00
78459;BME280;67753;42.684;23.330;2023-05-18T05:39:16;94630.47;;;15.13;100.00
78459;BME280;67753;42.684;23.330;2023-05-18T05:41:18;94633.97;;;15.02;100.00
78459;BME280;67753;42.684;23.330;2023-05-18T05:43:21;94623.63;;;14.76;100.00
78459;BME280;67753;42.684;23.330;2023-05-18T05:45:24;94624.03;;;14.71;100.00
78459;BME280;67753;42.684;23.330;2023-05-18T05:47:27;94637.06;;;14.97;100.00
78459;BME280;67753;42.684;23.330;2023-05-18T05:49:30;94640.50;;;15.12;100.00
78459;BME280;67753;42.684;23.330;2023-05-18T05:51:32;94637.13;;;14.83;100.00
78459;BME280;67753;42.684;23.330;2023-05-18T05:53:34;94634.84;;;14.53;100.00
78459;BME280;67753;42.684;23.330;2023-05-18T05:55:36;94637.06;;;14.94;100.00
78459;BME280;67753;42.684;23.330;2023-05-18T05:57:41;94632.41;;;15.08;100.00
78459;BME280;67753;42.684;23.330;2023-05-18T05:59:42;94648.63;;;15.01;100.00
78459;BME280;67753;42.684;23.330;2023-05-18T06:01:45;94641.34;;;14.84;100.00
78459;BME280;67753;42.684;23.330;2023-05-18T06:03:47;94647.88;;;14.97;100.00
78459;BME280;67753;42.684;23.330;2023-05-18T06:05:51;94642.13;;;14.81;100.00
78459;BME280;67753;42.684;23.330;2023-05-18T06:07:53;94634.06;;;14.67;100.00
78459;BME280;67753;42.684;23.330;2023-05-18T06:09:55;94628.69;;;14.52;100.00
78459;BME280;67753;42.684;23.330;2023-05-18T06:11:57;94626.00;;;14.60;100.00
78459;BME280;67753;42.684;23.330;2023-05-18T06:13:59;94617.16;;;14.48;100.00
78459;BME280;67753;42.684;23.330;2023-05-18T06:16:01;94621.00;;;14.40;100.00
78459;BME280;67753;42.684;23.330;2023-05-18T06:18:05;94619.44;;;14.61;100.00
78459;BME280;67753;42.684;23.330;2023-05-18T06:20:08;94619.41;;;14.82;100.00
78459;BME280;67753;42.684;23.330;2023-05-18T06:22:11;94644.72;;;15.09;100.00
78459;BME280;67753;42.684;23.330;2023-05-18T06:24:13;94655.94;;;15.04;100.00
78459;BME280;67753;42.684;23.330;2023-05-18T06:26:15;94613.25;;;14.78;100.00
78459;BME280;67753;42.684;23.330;2023-05-18T06:28:17;94629.09;;;14.22;100.00
78459;BME280;67753;42.684;23.330;2023-05-18T06:30:19;94652.59;;;14.54;100.00
78459;BME280;67753;42.684;23.330;2023-05-18T06:32:21;94642.97;;;14.49;100.00
78459;BME280;67753;42.684;23.330;2023-05-18T06:34:23;94641.81;;;14.50;100.00
78459;BME280;67753;42.684;23.330;2023-05-18T06:36:25;94659.88;;;14.71;100.00
78459;BME280;67753;42.684;23.330;2023-05-18T06:38:29;94667.16;;;14.89;100.00
78459;BME280;67753;42.684;23.330;2023-05-18T06:40:30;94662.13;;;14.98;100.00
78459;BME280;67753;42.684;23.330;2023-05-18T06:42:32;94679.22;;;15.65;100.00
78459;BME280;67753;42.684;23.330;2023-05-18T06:44:34;94687.91;;;15.97;100.00
78459;BME280;67753;42.684;23.330;2023-05-18T06:46:36;94684.63;;;15.65;100.00
78459;BME280;67753;42.684;23.330;2023-05-18T06:48:38;94696.00;;;16.04;100.00
78459;BME280;67753;42.684;23.330;2023-05-18T06:50:39;94687.06;;;15.30;100.00
78459;BME280;67753;42.684;23.330;2023-05-18T06:52:43;94690.72;;;15.76;100.00
78459;BME280;67753;42.684;23.330;2023-05-18T06:54:47;94697.00;;;16.25;100.00
78459;BME280;67753;42.684;23.330;2023-05-18T06:56:48;94699.41;;;15.28;100.00
78459;BME280;67753;42.684;23.330;2023-05-18T06:58:50;94695.53;;;15.43;100.00
78459;BME280;67753;42.684;23.330;2023-05-18T07:00:52;94712.34;;;15.76;100.00
78459;BME280;67753;42.684;23.330;2023-05-18T07:02:54;94712.09;;;15.38;100.00
78459;BME280;67753;42.684;23.330;2023-05-18T07:04:56;94707.50;;;15.28;100.00
78459;BME280;67753;42.684;23.330;2023-05-18T07:06:58;94714.63;;;15.84;100.00
78459;BME280;67753;42.684;23.330;2023-05-18T07:09:01;94726.63;;;15.80;100.00
78459;BME280;67753;42.684;23.330;2023-05-18T07:11:05;94717.66;;;15.94;100.00
78459;BME280;67753;42.684;23.330;2023-05-18T07:13:08;94724.50;;;16.13;100.00
78459;BME280;67753;42.684;23.330;2023-05-18T07:15:10;94736.97;;;15.92;100.00
78459;BME280;67753;42.684;23.330;2023-05-18T07:17:12;94730.13;;;15.70;100.00
78459;BME280;67753;42.684;23.330;2023-05-18T07:19:14;94741.88;;;16.12;100.00
78459;BME280;67753;42.684;23.330;2023-05-18T07:21:16;94735.47;;;15.84;100.00
78459;BME280;67753;42.684;23.330;2023-05-18T07:23:18;94739.69;;;15.92;100.00
78459;BME280;67753;42.684;23.330;2023-05-18T07:25:21;94743.06;;;16.10;100.00
78459;BME280;67753;42.684;23.330;2023-05-18T07:27:24;94750.84;;;15.98;100.00
78459;BME280;67753;42.684;23.330;2023-05-18T07:29:26;94753.13;;;16.03;100.00
78459;BME280;67753;42.684;23.330;2023-05-18T07:31:28;94757.75;;;16.06;100.00
78459;BME280;67753;42.684;23.330;2023-05-18T07:33:30;94754.72;;;16.00;100.00
78459;BME280;67753;42.684;23.330;2023-05-18T07:35:32;94754.03;;;15.82;100.00
78459;BME280;67753;42.684;23.330;2023-05-18T07:37:34;94754.84;;;15.72;100.00
78459;BME280;67753;42.684;23.330;2023-05-18T07:39:36;94772.97;;;16.45;100.00
78459;BME280;67753;42.684;23.330;2023-05-18T07:41:38;94776.59;;;16.24;100.00
78459;BME280;67753;42.684;23.330;2023-05-18T07:43:41;94772.22;;;16.37;100.00
78459;BME280;67753;42.684;23.330;2023-05-18T07:45:43;94768.47;;;16.24;100.00
78459;BME280;67753;42.684;23.330;2023-05-18T07:47:44;94777.63;;;16.37;100.00
78459;BME280;67753;42.684;23.330;2023-05-18T07:49:47;94783.59;;;16.10;100.00
78459;BME280;67753;42.684;23.330;2023-05-18T07:51:50;94793.16;;;16.26;100.00
78459;BME280;67753;42.684;23.330;2023-05-18T07:53:52;94795.53;;;16.17;100.00
78459;BME280;67753;42.684;23.330;2023-05-18T07:55:54;94786.22;;;16.25;100.00
78459;BME280;67753;42.684;23.330;2023-05-18T07:57:56;94788.97;;;16.18;100.00
78459;BME280;67753;42.684;23.330;2023-05-18T08:00:02;94800.13;;;16.27;100.00
78459;BME280;67753;42.684;23.330;2023-05-18T08:02:05;94800.25;;;16.05;99.44
78459;BME280;67753;42.684;23.330;2023-05-18T08:04:09;94805.53;;;16.27;100.00
78459;BME280;67753;42.684;23.330;2023-05-18T08:06:11;94805.53;;;16.27;100.00
78459;BME280;67753;42.684;23.330;2023-05-18T08:08:12;94795.63;;;16.02;100.00
78459;BME280;67753;42.684;23.330;2023-05-18T08:10:15;94811.19;;;15.70;100.00
78459;BME280;67753;42.684;23.330;2023-05-18T08:12:17;94808.69;;;16.11;100.00
78459;BME280;67753;42.684;23.330;2023-05-18T08:14:19;94821.47;;;16.10;100.00
78459;BME280;67753;42.684;23.330;2023-05-18T08:16:22;94814.88;;;16.12;96.67
78459;BME280;67753;42.684;23.330;2023-05-18T08:18:24;94824.16;;;16.14;99.38
78459;BME280;67753;42.684;23.330;2023-05-18T08:20:27;94822.28;;;16.00;97.40
78459;BME280;67753;42.684;23.330;2023-05-18T08:22:29;94836.56;;;16.04;97.85
78459;BME280;67753;42.684;23.330;2023-05-18T08:24:31;94831.09;;;16.12;97.04
78459;BME280;67753;42.684;23.330;2023-05-18T08:26:33;94828.88;;;15.92;98.61
78459;BME280;67753;42.684;23.330;2023-05-18T08:28:35;94832.78;;;15.70;100.00
78459;BME280;67753;42.684;23.330;2023-05-18T08:30:37;94838.91;;;15.92;100.00
78459;BME280;67753;42.684;23.330;2023-05-18T08:32:41;94834.75;;;15.66;100.00
78459;BME280;67753;42.684;23.330;2023-05-18T08:34:44;94842.84;;;15.66;100.00
78459;BME280;67753;42.684;23.330;2023-05-18T08:36:45;94847.44;;;15.76;100.00
78459;BME280;67753;42.684;23.330;2023-05-18T08:38:48;94852.03;;;15.93;100.00
78459;BME280;67753;42.684;23.330;2023-05-18T08:41:04;94845.94;;;15.53;100.00
78459;BME280;67753;42.684;23.330;2023-05-18T08:43:15;94854.41;;;15.63;100.00
78459;BME280;67753;42.684;23.330;2023-05-18T08:45:29;94859.72;;;16.05;100.00
78459;BME280;67753;42.684;23.330;2023-05-18T08:47:35;94859.81;;;15.77;100.00
78459;BME280;67753;42.684;23.330;2023-05-18T08:49:41;94856.69;;;15.82;100.00
78459;BME280;67753;42.684;23.330;2023-05-18T08:51:45;94856.91;;;16.27;100.00
78459;BME280;67753;42.684;23.330;2023-05-18T08:53:51;94858.13;;;16.19;100.00
78459;BME280;67753;42.684;23.330;2023-05-18T08:55:53;94867.00;;;16.08;100.00
78459;BME280;67753;42.684;23.330;2023-05-18T08:57:56;94865.47;;;16.07;100.00
78459;BME280;67753;42.684;23.330;2023-05-18T09:00:00;94865.78;;;16.31;100.00
78459;BME280;67753;42.684;23.330;2023-05-18T09:02:04;94867.69;;;16.30;100.00
78459;BME280;67753;42.684;23.330;2023-05-18T09:04:07;94866.94;;;16.33;100.00
78459;BME280;67753;42.684;23.330;2023-05-18T09:06:11;94868.88;;;16.33;100.00
78459;BME280;67753;42.684;23.330;2023-05-18T09:08:15;94872.63;;;16.46;100.00
78459;BME280;67753;42.684;23.330;2023-05-18T09:10:19;94880.41;;;16.37;100.00
78459;BME280;67753;42.684;23.330;2023-05-18T09:12:22;94883.41;;;16.57;100.00
78459;BME280;67753;42.684;23.330;2023-05-18T09:14:24;94882.59;;;16.67;100.00
78459;BME280;67753;42.684;23.330;2023-05-18T09:16:26;94888.00;;;16.64;100.00
78459;BME280;67753;42.684;23.330;2023-05-18T09:18:28;94893.66;;;16.14;100.00
78459;BME280;67753;42.684;23.330;2023-05-18T09:20:30;94885.72;;;16.58;100.00
78459;BME280;67753;42.684;23.330;2023-05-18T09:22:35;94891.38;;;16.01;97.50
78459;BME280;67753;42.684;23.330;2023-05-18T09:24:41;94898.28;;;16.13;95.71
78459;BME280;67753;42.684;23.330;2023-05-18T09:26:43;94891.75;;;16.07;97.72
78459;BME280;67753;42.684;23.330;2023-05-18T09:28:45;94902.44;;;16.39;94.96
78459;BME280;67753;42.684;23.330;2023-05-18T09:30:48;94898.63;;;16.22;94.91
78459;BME280;67753;42.684;23.330;2023-05-18T09:32:52;94899.56;;;15.51;97.86
78459;BME280;67753;42.684;23.330;2023-05-18T09:34:55;94899.97;;;15.53;100.00
78459;BME280;67753;42.684;23.330;2023-05-18T09:37:04;94898.41;;;15.63;100.00
78459;BME280;67753;42.684;23.330;2023-05-18T09:39:09;94898.66;;;16.19;95.08
78459;BME280;67753;42.684;23.330;2023-05-18T09:41:12;94902.50;;;16.25;97.24
78459;BME280;67753;42.684;23.330;2023-05-18T09:43:15;94911.22;;;16.61;97.02
78459;BME280;67753;42.684;23.330;2023-05-18T09:45:18;94909.72;;;16.49;95.30
78459;BME280;67753;42.684;23.330;2023-05-18T09:47:23;94912.09;;;16.40;94.39
78459;BME280;67753;42.684;23.330;2023-05-18T09:49:24;94910.72;;;15.96;96.44
78459;BME280;67753;42.684;23.330;2023-05-18T09:51:26;94910.75;;;15.86;98.47
78459;BME280;67753;42.684;23.330;2023-05-18T09:53:29;94914.63;;;15.77;98.26
78459;BME280;67753;42.684;23.330;2023-05-18T09:55:35;94909.22;;;15.74;100.00
78459;BME280;67753;42.684;23.330;2023-05-18T09:57:40;94906.44;;;16.09;100.00
78459;BME280;67753;42.684;23.330;2023-05-18T09:59:43;94905.59;;;16.23;99.91
78459;BME280;67753;42.684;23.330;2023-05-18T10:01:55;94915.97;;;16.32;96.76
78459;BME280;67753;42.684;23.330;2023-05-18T10:04:01;94914.44;;;16.38;95.76
78459;BME280;67753;42.684;23.330;2023-05-18T10:06:04;94915.97;;;16.43;97.24
78459;BME280;67753;42.684;23.330;2023-05-18T10:08:06;94913.00;;;15.94;98.88
78459;BME280;67753;42.684;23.330;2023-05-18T10:10:09;94919.09;;;16.27;99.52
78459;BME280;67753;42.684;23.330;2023-05-18T10:12:13;94928.50;;;15.87;97.83
78459;BME280;67753;42.684;23.330;2023-05-18T10:14:15;94925.34;;;16.09;95.39
78459;BME280;67753;42.684;23.330;2023-05-18T10:16:17;94926.88;;;16.03;95.67
78459;BME280;67753;42.684;23.330;2023-05-18T10:18:21;94942.25;;;16.39;94.71
78459;BME280;67753;42.684;23.330;2023-05-18T10:20:23;94926.88;;;16.03;94.69
78459;BME280;67753;42.684;23.330;2023-05-18T10:22:26;94932.75;;;15.55;94.05
78459;BME280;67753;42.684;23.330;2023-05-18T10:24:30;94933.91;;;15.76;95.15
78459;BME280;67753;42.684;23.330;2023-05-18T10:26:37;94936.22;;;15.74;92.93
78459;BME280;67753;42.684;23.330;2023-05-18T10:28:43;94936.25;;;15.67;93.86
78459;BME280;67753;42.684;23.330;2023-05-18T10:30:46;94934.31;;;15.64;97.88
78459;BME280;67753;42.684;23.330;2023-05-18T10:32:48;94944.31;;;15.95;94.55
78459;BME280;67753;42.684;23.330;2023-05-18T10:34:51;94943.91;;;15.93;93.03